Terminal Aerodrome Forecast
Issued by NWS

Home | Current Version | Previous Version | Text Only | Print | Product List | Glossary On
Versions: 1 2 3 4 5 6 7 8 9 10 11 12 13 14 15 16 17 18
000
FTUS44 KLZK 271200 AAA
TAFADF
TAF AMD
KADF 271236Z 2713/2812 00000KT 5SM BR SCT002 BKN040
      TEMPO 2713/2715 1/4SM FG OVC002
     FM271500 36008KT P6SM SCT035 BKN060
     FM272000 35009KT P6SM SCT060 BKN250
     FM280000 VRB03KT P6SM SCT100 BKN250=

USA.gov is the U.S. government's official web portal to all federal, state and local government web resources and services.